Time;durP1;ratioP1;P1;durP2;ratioP2;P2;SDS_P1;SDS_P2;PMS_P1;PMS_P2;Temp;Humidity;BMP_temperature;BMP_pressure;BME280_temperature;BME280_humidity;BME280_pressure;Samples;Min_cycle;Max_cycle;Signal;HPM_P1;HPM_P2
2021/08/08 00:02:24;;;;;;;1.30;0.98;;;20.80;76.10;;;;;;5092670;28;20024;-71
2021/08/08 00:04:50;;;;;;;4.20;1.08;;;20.80;76.00;;;;;;5092602;28;20647;-71
2021/08/08 00:07:17;;;;;;;1.80;1.02;;;20.70;76.00;;;;;;5092647;28;20031;-71
2021/08/08 00:09:43;;;;;;;1.75;1.00;;;20.80;75.90;;;;;;5093226;28;20028;-71
2021/08/08 00:12:10;;;;;;;4.95;1.30;;;20.70;76.50;;;;;;5092545;28;20173;-71
2021/08/08 00:14:36;;;;;;;1.80;1.25;;;20.70;75.70;;;;;;5092513;28;20016;-71
2021/08/08 00:17:03;;;;;;;2.65;1.25;;;20.80;75.50;;;;;;5092357;28;20028;-71
2021/08/08 00:19:28;;;;;;;1.67;0.90;;;20.70;75.50;;;;;;5092383;28;20031;-71
2021/08/08 00:21:54;;;;;;;2.97;1.20;;;20.80;75.70;;;;;;5091853;28;20028;-72
2021/08/08 00:24:20;;;;;;;1.77;1.10;;;20.70;75.80;;;;;;5072732;28;20020;-72
2021/08/08 00:26:46;;;;;;;1.10;0.90;;;20.70;75.80;;;;;;5085362;28;20386;-71
2021/08/08 00:29:11;;;;;;;0.80;0.80;;;20.80;75.70;;;;;;5053940;28;20042;-72
2021/08/08 00:31:37;;;;;;;1.17;0.98;;;20.80;75.00;;;;;;5070271;28;20119;-72
2021/08/08 00:34:03;;;;;;;2.03;1.20;;;20.80;74.70;;;;;;5063266;28;20056;-72
2021/08/08 00:36:29;;;;;;;1.85;0.98;;;20.80;74.60;;;;;;5071804;28;20033;-72
2021/08/08 00:38:56;;;;;;;1.35;1.02;;;20.80;74.50;;;;;;5079770;28;20020;-71
2021/08/08 00:41:23;;;;;;;1.55;1.10;;;20.80;74.50;;;;;;5072037;28;20024;-72
2021/08/08 00:43:49;;;;;;;1.63;1.20;;;20.80;74.40;;;;;;5071939;28;20483;-72
2021/08/08 00:46:17;;;;;;;1.13;0.95;;;20.80;74.40;;;;;;5076084;28;20048;-71
2021/08/08 00:48:43;;;;;;;1.38;1.20;;;20.80;74.20;;;;;;5065327;28;20058;-71
2021/08/08 00:51:09;;;;;;;0.68;0.68;;;20.90;74.20;;;;;;5071319;28;20028;-72
2021/08/08 00:53:35;;;;;;;1.60;1.10;;;20.90;73.70;;;;;;5091842;28;20051;-72
2021/08/08 00:56:01;;;;;;;1.50;1.00;;;20.80;73.40;;;;;;5091518;28;20484;-71
2021/08/08 00:58:28;;;;;;;2.22;1.00;;;20.80;73.40;;;;;;5074527;28;20032;-71
2021/08/08 01:00:58;;;;;;;1.38;1.00;;;20.80;73.40;;;;;;5071880;28;20104;-71
2021/08/08 01:03:26;;;;;;;1.77;1.23;;;20.80;72.80;;;;;;5071983;28;20021;-72
2021/08/08 01:05:59;;;;;;;1.17;0.80;;;20.80;73.00;;;;;;5072677;28;20490;-71
2021/08/08 01:08:32;;;;;;;1.27;0.93;;;20.80;73.10;;;;;;5092626;28;20103;-71
2021/08/08 01:11:00;;;;;;;1.13;0.82;;;20.80;73.10;;;;;;5095977;28;20099;-71
2021/08/08 01:13:27;;;;;;;1.20;0.85;;;20.80;73.20;;;;;;5095998;28;20023;-72
2021/08/08 01:15:52;;;;;;;4.45;0.95;;;20.80;73.20;;;;;;5094271;28;20038;-72
2021/08/08 01:18:19;;;;;;;1.83;0.98;;;20.80;72.80;;;;;;5057481;28;20603;-72
2021/08/08 01:20:48;;;;;;;6.95;0.90;;;20.80;72.70;;;;;;5080271;28;20059;-72
2021/08/08 01:23:17;;;;;;;1.98;1.05;;;20.80;72.80;;;;;;5077100;28;20035;-72
2021/08/08 01:25:45;;;;;;;1.13;1.02;;;20.80;72.60;;;;;;5095186;28;20440;-72
2021/08/08 01:28:11;;;;;;;1.35;0.90;;;20.80;72.50;;;;;;5068192;28;20590;-71
2021/08/08 01:30:36;;;;;;;1.50;1.08;;;20.80;72.40;;;;;;5095599;28;20111;-72
2021/08/08 01:33:10;;;;;;;2.13;1.02;;;20.80;72.30;;;;;;5085082;28;20123;-72
2021/08/08 01:35:36;;;;;;;1.77;0.68;;;20.80;72.50;;;;;;5095564;28;20028;-72
2021/08/08 01:38:02;;;;;;;1.40;0.90;;;20.80;72.40;;;;;;5076437;28;20032;-72
2021/08/08 01:40:41;;;;;;;3.45;1.15;;;20.80;72.10;;;;;;5095560;28;20050;-71
2021/08/08 01:43:11;;;;;;;1.08;0.68;;;20.80;72.10;;;;;;5095433;28;20024;-72
2021/08/08 01:45:40;;;;;;;1.02;0.85;;;20.70;71.90;;;;;;5095636;28;20389;-72
2021/08/08 01:48:09;;;;;;;1.55;1.10;;;20.70;72.10;;;;;;5084454;28;20016;-71
2021/08/08 01:50:35;;;;;;;3.15;0.98;;;20.70;72.10;;;;;;5082124;28;20028;-72
2021/08/08 01:53:02;;;;;;;1.25;1.00;;;20.70;71.80;;;;;;5075799;28;20117;-72
2021/08/08 01:55:29;;;;;;;1.85;0.80;;;20.70;71.90;;;;;;5095010;28;20470;-72
2021/08/08 01:57:58;;;;;;;0.70;0.70;;;20.70;72.00;;;;;;5081394;28;20032;-71
2021/08/08 02:00:27;;;;;;;3.70;0.98;;;20.70;71.80;;;;;;5095012;28;20024;-72
2021/08/08 02:02:56;;;;;;;1.65;0.80;;;20.70;71.60;;;;;;5076116;28;20055;-72
2021/08/08 02:05:26;;;;;;;1.98;1.00;;;20.70;72.30;;;;;;5076591;28;20078;-72
2021/08/08 02:07:51;;;;;;;0.93;0.80;;;20.60;71.40;;;;;;5094803;28;20024;-71
2021/08/08 02:10:18;;;;;;;1.15;1.00;;;20.60;71.60;;;;;;5095092;28;20385;-72
2021/08/08 02:12:44;;;;;;;2.05;0.88;;;20.60;71.60;;;;;;5095020;28;20509;-72
2021/08/08 02:15:11;;;;;;;2.28;1.00;;;20.60;71.50;;;;;;5094946;28;20053;-71
2021/08/08 02:17:38;;;;;;;5.03;1.20;;;20.60;71.40;;;;;;5093982;28;20055;-72
2021/08/08 02:20:07;;;;;;;1.10;0.80;;;20.60;71.50;;;;;;5094533;28;20420;-72
2021/08/08 02:22:34;;;;;;;1.38;1.00;;;20.60;71.10;;;;;;5093819;28;20024;-72
2021/08/08 02:24:59;;;;;;;1.27;1.05;;;20.60;71.10;;;;;;5080028;28;20038;-72
2021/08/08 02:27:26;;;;;;;1.52;0.98;;;20.50;71.10;;;;;;5056474;28;20021;-71
2021/08/08 02:29:51;;;;;;;1.08;0.98;;;20.50;71.20;;;;;;5074303;28;20024;-72
2021/08/08 02:32:17;;;;;;;1.95;1.10;;;20.50;71.30;;;;;;5087443;28;20030;-72
2021/08/08 02:34:43;;;;;;;2.30;1.10;;;20.50;71.50;;;;;;5093991;28;20065;-72
2021/08/08 02:37:10;;;;;;;1.30;1.20;;;20.50;71.60;;;;;;5093907;28;20024;-72
2021/08/08 02:39:35;;;;;;;1.88;1.30;;;20.50;71.50;;;;;;5094373;28;20034;-72
2021/08/08 02:42:01;;;;;;;1.20;0.82;;;20.50;71.60;;;;;;5076049;28;20102;-72
2021/08/08 02:44:27;;;;;;;2.33;1.02;;;20.50;71.50;;;;;;5094324;28;20396;-71
2021/08/08 02:46:53;;;;;;;1.30;0.75;;;20.50;71.60;;;;;;5093179;28;20108;-72
2021/08/08 02:49:19;;;;;;;1.63;0.88;;;20.50;71.70;;;;;;5094260;28;20067;-72
2021/08/08 02:51:45;;;;;;;1.33;0.80;;;20.50;71.70;;;;;;5093343;28;20103;-72
2021/08/08 02:54:14;;;;;;;3.40;1.05;;;20.50;71.60;;;;;;5093538;28;20103;-72
2021/08/08 02:56:40;;;;;;;2.25;0.70;;;20.50;71.60;;;;;;5085755;28;20486;-71
2021/08/08 02:59:07;;;;;;;1.20;0.80;;;20.50;71.60;;;;;;5090019;28;20051;-72
2021/08/08 03:01:33;;;;;;;2.72;1.05;;;20.50;71.70;;;;;;5074947;28;20028;-72
2021/08/08 03:03:58;;;;;;;0.90;0.57;;;20.50;71.40;;;;;;5093915;28;20024;-71
2021/08/08 03:06:24;;;;;;;1.73;0.90;;;20.50;71.60;;;;;;5093495;28;20024;-71
2021/08/08 03:08:51;;;;;;;2.08;0.90;;;20.50;71.50;;;;;;5093736;28;20028;-72
2021/08/08 03:11:17;;;;;;;3.63;0.98;;;20.50;71.40;;;;;;5075378;28;20385;-71
2021/08/08 03:13:42;;;;;;;1.17;0.60;;;20.50;71.50;;;;;;5093699;28;20030;-71
2021/08/08 03:16:08;;;;;;;2.38;0.90;;;20.50;71.60;;;;;;5075161;28;20378;-71
2021/08/08 03:18:34;;;;;;;1.25;0.70;;;20.50;71.60;;;;;;5093071;28;20089;-72
2021/08/08 03:21:00;;;;;;;1.45;1.00;;;20.50;71.40;;;;;;5092815;28;20027;-72
2021/08/08 03:23:26;;;;;;;3.03;1.08;;;20.50;71.40;;;;;;5093488;28;20016;-72
2021/08/08 03:25:51;;;;;;;1.52;1.20;;;20.50;71.40;;;;;;5073647;28;20482;-72
2021/08/08 03:28:17;;;;;;;2.28;1.00;;;20.50;71.40;;;;;;5085373;28;20115;-71
2021/08/08 03:30:43;;;;;;;3.72;1.27;;;20.40;71.50;;;;;;5086251;28;20515;-71
2021/08/08 03:33:09;;;;;;;2.45;1.00;;;20.50;71.50;;;;;;5092639;28;20381;-71
2021/08/08 03:35:36;;;;;;;2.13;1.38;;;20.50;71.50;;;;;;5093048;28;20032;-71
2021/08/08 03:38:01;;;;;;;3.13;1.58;;;20.50;71.50;;;;;;5088553;28;20447;-72
2021/08/08 03:40:27;;;;;;;2.25;1.33;;;20.40;71.40;;;;;;5072791;28;20104;-71
2021/08/08 03:42:54;;;;;;;1.73;1.00;;;20.50;71.50;;;;;;5072923;28;20382;-71
2021/08/08 03:45:20;;;;;;;1.33;1.00;;;20.50;71.50;;;;;;5072941;28;20032;-72
2021/08/08 03:47:45;;;;;;;2.65;1.35;;;20.50;71.60;;;;;;5072822;28;20028;-72
2021/08/08 03:50:11;;;;;;;1.55;1.38;;;20.50;71.20;;;;;;5072647;28;20490;-71
2021/08/08 03:52:37;;;;;;;4.32;1.38;;;20.50;71.10;;;;;;5081268;28;20055;-71
2021/08/08 03:55:05;;;;;;;1.83;1.17;;;20.40;71.10;;;;;;5093054;28;20110;-71
2021/08/08 03:57:31;;;;;;;4.53;1.92;;;20.40;71.10;;;;;;5091821;28;20020;-71
2021/08/08 03:59:57;;;;;;;4.47;1.50;;;20.40;71.10;;;;;;5092893;28;20058;-71
2021/08/08 04:02:23;;;;;;;1.83;1.30;;;20.40;71.10;;;;;;5092782;28;20448;-71
2021/08/08 04:04:49;;;;;;;1.73;1.30;;;20.40;71.00;;;;;;5074606;28;20054;-71
2021/08/08 04:07:15;;;;;;;1.67;1.27;;;20.40;71.00;;;;;;5092696;28;20069;-72
2021/08/08 04:09:41;;;;;;;2.28;1.92;;;20.40;71.10;;;;;;5074761;28;20073;-72
2021/08/08 04:12:08;;;;;;;3.35;1.60;;;20.40;71.00;;;;;;5092569;28;20513;-72
2021/08/08 04:14:35;;;;;;;2.28;1.30;;;20.40;71.00;;;;;;5092157;28;20112;-72
2021/08/08 04:17:01;;;;;;;2.28;1.35;;;20.40;70.90;;;;;;5092428;28;20381;-72
2021/08/08 04:19:26;;;;;;;2.50;1.20;;;20.40;71.10;;;;;;5092574;28;20020;-72
2021/08/08 04:21:52;;;;;;;2.28;1.40;;;20.40;71.10;;;;;;5074343;28;20116;-72
2021/08/08 04:24:18;;;;;;;2.45;1.40;;;20.40;71.20;;;;;;5092461;28;20477;-72
2021/08/08 04:26:44;;;;;;;1.10;0.98;;;20.40;71.30;;;;;;5088598;28;20064;-71
2021/08/08 04:29:10;;;;;;;1.75;1.23;;;20.40;71.40;;;;;;5078620;28;20070;-71
2021/08/08 04:31:36;;;;;;;1.88;1.30;;;20.40;71.30;;;;;;5091341;28;20032;-72
2021/08/08 04:34:02;;;;;;;1.38;1.10;;;20.40;72.10;;;;;;5092199;28;20042;-72
2021/08/08 04:36:27;;;;;;;2.72;1.20;;;20.40;71.30;;;;;;5091892;28;20031;-72
2021/08/08 04:38:53;;;;;;;2.10;1.02;;;20.40;71.30;;;;;;5084616;28;20048;-71
2021/08/08 04:41:19;;;;;;;1.77;1.15;;;20.50;71.50;;;;;;5072059;28;20033;-72
2021/08/08 04:43:45;;;;;;;1.95;1.15;;;20.50;71.30;;;;;;5071975;28;20066;-72
2021/08/08 04:46:10;;;;;;;1.85;1.27;;;20.50;71.10;;;;;;5071983;28;20021;-71
2021/08/08 04:48:36;;;;;;;1.58;1.05;;;20.50;71.10;;;;;;5071946;28;20024;-71
2021/08/08 04:51:02;;;;;;;3.03;1.20;;;20.50;71.20;;;;;;5061167;28;20032;-71
2021/08/08 04:53:28;;;;;;;1.52;1.13;;;20.50;71.10;;;;;;5091908;28;20082;-72
2021/08/08 04:55:55;;;;;;;1.10;0.90;;;20.50;71.40;;;;;;5091951;28;20028;-72
2021/08/08 04:58:21;;;;;;;2.35;1.10;;;20.50;71.40;;;;;;5091006;28;20031;-71
2021/08/08 05:00:47;;;;;;;1.40;1.10;;;20.50;71.60;;;;;;5091153;28;20016;-72
2021/08/08 05:03:13;;;;;;;1.73;0.90;;;20.60;71.90;;;;;;5073779;28;20021;-71
2021/08/08 05:05:39;;;;;;;1.50;1.00;;;20.60;72.00;;;;;;5092020;28;20032;-72
2021/08/08 05:08:05;;;;;;;2.17;1.00;;;20.70;72.10;;;;;;5091960;28;20294;-72
2021/08/08 05:10:31;;;;;;;1.38;1.25;;;20.70;72.20;;;;;;5091194;28;20032;-72
2021/08/08 05:12:56;;;;;;;1.73;1.20;;;20.80;71.80;;;;;;5091805;28;20474;-72
2021/08/08 05:15:24;;;;;;;1.85;1.05;;;20.90;71.60;;;;;;5073405;28;20073;-71
2021/08/08 05:17:50;;;;;;;3.17;1.15;;;20.90;71.30;;;;;;5091704;28;20028;-72
2021/08/08 05:20:16;;;;;;;1.65;1.20;;;21.00;71.10;;;;;;5091252;28;20099;-73
2021/08/08 05:22:42;;;;;;;1.20;0.95;;;21.00;71.90;;;;;;5091475;28;20540;-72
2021/08/08 05:25:09;;;;;;;2.00;1.10;;;21.00;71.10;;;;;;5091936;28;20370;-72
2021/08/08 05:27:36;;;;;;;1.90;1.08;;;21.00;70.90;;;;;;5091115;28;20125;-71
2021/08/08 05:30:04;;;;;;;1.95;1.05;;;21.00;70.70;;;;;;5087563;28;20032;-72
2021/08/08 05:32:30;;;;;;;3.47;1.02;;;21.00;70.40;;;;;;5091438;28;20155;-74
2021/08/08 05:34:56;;;;;;;1.80;0.75;;;21.10;70.70;;;;;;5091786;28;20459;-71
2021/08/08 05:37:23;;;;;;;1.42;1.00;;;21.10;70.60;;;;;;5073219;28;20036;-71
2021/08/08 05:39:49;;;;;;;4.35;1.60;;;21.10;70.90;;;;;;5073393;28;20020;-72
2021/08/08 05:42:18;;;;;;;2.25;1.20;;;21.10;70.70;;;;;;5091927;28;20073;-72
2021/08/08 05:44:44;;;;;;;3.88;1.55;;;21.10;70.50;;;;;;5073471;28;20024;-72
2021/08/08 05:47:10;;;;;;;2.67;1.33;;;21.10;70.50;;;;;;5091656;28;20550;-71
2021/08/08 05:49:35;;;;;;;2.13;1.30;;;21.10;70.20;;;;;;5090608;28;20028;-72
2021/08/08 05:52:02;;;;;;;3.28;1.30;;;21.10;70.10;;;;;;5091449;28;20031;-72
2021/08/08 05:54:29;;;;;;;7.35;1.75;;;21.10;70.20;;;;;;5051853;28;20051;-73
2021/08/08 05:56:55;;;;;;;5.90;2.05;;;21.10;70.10;;;;;;5038203;28;20103;-72
2021/08/08 05:59:21;;;;;;;10.98;3.38;;;21.20;70.20;;;;;;5055039;28;20087;-72
2021/08/08 06:01:46;;;;;;;7.63;3.10;;;21.20;70.50;;;;;;5054345;28;20124;-72
2021/08/08 06:04:12;;;;;;;8.23;2.50;;;21.30;71.00;;;;;;5045681;28;20030;-72
2021/08/08 06:06:38;;;;;;;2.28;1.50;;;21.30;70.60;;;;;;5034948;28;20422;-72
2021/08/08 06:09:03;;;;;;;6.53;2.53;;;21.40;70.30;;;;;;5034834;28;20530;-72
2021/08/08 06:11:29;;;;;;;4.47;1.90;;;21.40;70.10;;;;;;5034658;28;20387;-72
2021/08/08 06:13:55;;;;;;;4.38;1.40;;;21.50;70.10;;;;;;5033668;28;20033;-72
2021/08/08 06:16:21;;;;;;;2.58;1.30;;;21.50;69.80;;;;;;5034549;28;20025;-72
2021/08/08 06:18:47;;;;;;;2.03;1.17;;;21.50;70.40;;;;;;5033239;28;20033;-72
2021/08/08 06:21:13;;;;;;;3.28;1.20;;;21.60;70.70;;;;;;5034498;28;20033;-72
2021/08/08 06:23:39;;;;;;;6.07;1.17;;;21.70;70.10;;;;;;5050371;28;20033;-72
2021/08/08 06:26:05;;;;;;;2.28;0.98;;;21.70;70.00;;;;;;5054435;28;20029;-72
2021/08/08 06:28:30;;;;;;;0.82;0.82;;;21.80;69.60;;;;;;5040040;28;20022;-72
2021/08/08 06:30:56;;;;;;;4.68;1.10;;;21.80;69.40;;;;;;5034535;28;20022;-72
2021/08/08 06:33:22;;;;;;;2.85;1.00;;;21.80;69.60;;;;;;5044031;28;20014;-72
2021/08/08 06:35:49;;;;;;;2.40;0.95;;;21.90;69.70;;;;;;5034133;28;20483;-72
2021/08/08 06:38:15;;;;;;;1.00;0.73;;;21.90;69.30;;;;;;5034138;28;20024;-72
2021/08/08 06:40:41;;;;;;;1.48;0.90;;;21.90;69.20;;;;;;5034150;28;20071;-72
2021/08/08 06:43:06;;;;;;;0.80;0.80;;;21.90;69.80;;;;;;5034112;28;20029;-72
2021/08/08 06:45:33;;;;;;;1.98;0.93;;;22.00;69.70;;;;;;5032628;28;20116;-72
2021/08/08 06:48:00;;;;;;;2.25;0.90;;;22.00;69.20;;;;;;5039123;28;20028;-73
2021/08/08 06:50:27;;;;;;;1.35;0.85;;;22.00;69.50;;;;;;5052631;28;20025;-72
2021/08/08 06:52:53;;;;;;;3.28;0.90;;;22.10;70.00;;;;;;5063138;28;20263;-72
2021/08/08 06:55:19;;;;;;;1.38;0.80;;;22.10;69.40;;;;;;5074459;28;20028;-73
2021/08/08 06:57:45;;;;;;;2.28;0.90;;;22.20;68.70;;;;;;5085344;28;20657;-72
2021/08/08 07:00:11;;;;;;;1.60;0.63;;;22.20;68.70;;;;;;5093131;28;20047;-72
2021/08/08 07:02:37;;;;;;;1.20;0.63;;;22.30;68.60;;;;;;5093806;28;20085;-72
2021/08/08 07:05:04;;;;;;;1.90;1.05;;;22.30;68.20;;;;;;5077654;28;20471;-72
2021/08/08 07:07:30;;;;;;;1.00;0.60;;;22.30;67.40;;;;;;5072489;28;20417;-72
2021/08/08 07:09:56;;;;;;;2.58;0.70;;;22.40;67.10;;;;;;5084483;28;20115;-73
2021/08/08 07:12:22;;;;;;;0.40;0.40;;;22.40;68.60;;;;;;5075547;28;20206;-73
2021/08/08 07:14:49;;;;;;;1.20;0.60;;;22.50;68.30;;;;;;5093762;28;20028;-72
2021/08/08 07:17:15;;;;;;;1.48;0.80;;;22.60;68.80;;;;;;5093567;28;20027;-72
2021/08/08 07:19:41;;;;;;;0.70;0.57;;;22.80;68.30;;;;;;5093637;28;20024;-72
2021/08/08 07:22:07;;;;;;;1.40;0.70;;;22.90;67.40;;;;;;5093143;28;20032;-72
2021/08/08 07:24:33;;;;;;;1.02;0.60;;;23.10;65.60;;;;;;5075309;28;20045;-72
2021/08/08 07:26:59;;;;;;;1.42;0.73;;;23.20;65.60;;;;;;5091234;28;20034;-73
2021/08/08 07:29:25;;;;;;;1.15;0.70;;;23.30;65.70;;;;;;5073380;28;20032;-73
2021/08/08 07:31:52;;;;;;;3.78;0.82;;;23.40;64.70;;;;;;5089040;28;20060;-73
2021/08/08 07:34:18;;;;;;;2.38;0.80;;;23.40;64.40;;;;;;5093301;28;20020;-73
2021/08/08 07:36:44;;;;;;;1.05;0.80;;;23.50;65.80;;;;;;5074387;28;20036;-73
2021/08/08 07:39:09;;;;;;;1.00;0.60;;;23.60;65.00;;;;;;5094630;28;20381;-71
2021/08/08 07:41:35;;;;;;;1.10;0.70;;;23.70;64.30;;;;;;5084557;28;20100;-73
2021/08/08 07:44:01;;;;;;;0.93;0.70;;;23.80;63.80;;;;;;5072899;28;20039;-72
2021/08/08 07:46:27;;;;;;;1.13;0.77;;;23.80;62.70;;;;;;5076957;28;20043;-73
2021/08/08 07:48:52;;;;;;;1.67;0.80;;;23.90;63.50;;;;;;5093126;28;20020;-73
2021/08/08 07:51:18;;;;;;;5.28;0.80;;;24.00;62.00;;;;;;5087475;28;20113;-72
2021/08/08 07:53:44;;;;;;;1.55;0.50;;;24.10;60.00;;;;;;5092801;28;20072;-73
2021/08/08 07:56:10;;;;;;;0.68;0.40;;;24.10;61.40;;;;;;5075957;28;20032;-72
2021/08/08 07:58:36;;;;;;;1.77;0.60;;;24.20;62.30;;;;;;5065414;28;20478;-73
2021/08/08 08:01:02;;;;;;;0.88;0.52;;;24.40;61.40;;;;;;5092455;28;20030;-71
2021/08/08 08:03:29;;;;;;;1.15;0.60;;;24.40;60.10;;;;;;5092556;28;20073;-71
2021/08/08 08:05:55;;;;;;;1.48;0.63;;;24.50;59.70;;;;;;5054571;28;20078;-71
2021/08/08 08:08:21;;;;;;;1.35;0.60;;;24.50;60.00;;;;;;5072397;28;20428;-72
2021/08/08 08:10:47;;;;;;;1.27;0.43;;;24.60;58.80;;;;;;5072242;28;20025;-72
2021/08/08 08:13:13;;;;;;;0.47;0.40;;;24.60;59.60;;;;;;5072188;28;20033;-72
2021/08/08 08:15:39;;;;;;;1.48;0.63;;;24.60;57.50;;;;;;5072283;28;20024;-72
2021/08/08 08:18:05;;;;;;;0.65;0.52;;;24.70;57.20;;;;;;5092020;28;20478;-72
2021/08/08 08:20:31;;;;;;;1.15;0.80;;;24.70;58.10;;;;;;5092544;28;20016;-71
2021/08/08 08:22:57;;;;;;;1.52;0.63;;;24.70;56.80;;;;;;5092288;28;20027;-72
2021/08/08 08:25:22;;;;;;;1.10;0.60;;;24.80;58.20;;;;;;5092351;28;20059;-72
2021/08/08 08:27:49;;;;;;;1.00;0.50;;;24.80;58.90;;;;;;5071574;28;20052;-72
2021/08/08 08:30:14;;;;;;;0.85;0.50;;;24.90;58.50;;;;;;5071952;28;20448;-72
2021/08/08 08:32:40;;;;;;;1.58;0.60;;;25.00;58.70;;;;;;5072057;28;20108;-71
2021/08/08 08:35:07;;;;;;;0.90;0.57;;;25.10;58.50;;;;;;5071917;28;20119;-72
2021/08/08 08:37:33;;;;;;;2.65;0.75;;;25.20;58.90;;;;;;5071949;28;20035;-72
2021/08/08 08:40:01;;;;;;;1.38;0.50;;;25.30;58.90;;;;;;5072344;28;20017;-72
2021/08/08 08:42:30;;;;;;;0.90;0.68;;;25.50;57.30;;;;;;5079775;28;20012;-72
2021/08/08 08:44:57;;;;;;;0.95;0.70;;;25.60;57.60;;;;;;5072772;28;20039;-72
2021/08/08 08:47:24;;;;;;;0.88;0.60;;;25.70;56.90;;;;;;5089237;28;20496;-72
2021/08/08 08:49:59;;;;;;;1.17;0.40;;;25.70;56.30;;;;;;5073226;28;20039;-72
2021/08/08 08:52:27;;;;;;;1.60;0.50;;;25.80;57.50;;;;;;5091467;28;20020;-72
2021/08/08 08:54:54;;;;;;;1.02;0.60;;;26.00;57.10;;;;;;5091689;28;20028;-71
2021/08/08 08:57:21;;;;;;;0.73;0.70;;;26.00;55.20;;;;;;5091012;28;20408;-72
2021/08/08 08:59:48;;;;;;;0.50;0.40;;;26.10;53.80;;;;;;5092136;28;20052;-72
2021/08/08 09:02:14;;;;;;;2.08;0.57;;;26.10;53.80;;;;;;5091238;28;20485;-72
2021/08/08 09:04:41;;;;;;;0.50;0.50;;;26.10;53.00;;;;;;5072160;28;20060;-72
2021/08/08 09:07:07;;;;;;;1.00;0.60;;;26.10;53.00;;;;;;5091935;28;20028;-72
2021/08/08 09:09:34;;;;;;;0.70;0.70;;;26.20;53.10;;;;;;5091795;28;20150;-71
2021/08/08 09:12:00;;;;;;;1.65;0.60;;;26.20;52.00;;;;;;5091818;28;20036;-72
2021/08/08 09:14:25;;;;;;;1.40;0.90;;;26.20;51.50;;;;;;5091818;28;20047;-72
2021/08/08 09:16:53;;;;;;;1.33;0.70;;;26.30;53.50;;;;;;5091719;28;20474;-71
2021/08/08 09:19:26;;;;;;;1.20;0.63;;;26.30;53.20;;;;;;5092087;28;20020;-71
2021/08/08 09:21:53;;;;;;;0.40;0.40;;;26.20;52.50;;;;;;5091788;28;20529;-72
2021/08/08 09:24:34;;;;;;;0.63;0.40;;;26.20;51.10;;;;;;5090684;28;20107;-71
2021/08/08 09:27:02;;;;;;;3.67;0.40;;;26.10;51.90;;;;;;5072767;28;20032;-72
2021/08/08 09:29:28;;;;;;;1.55;0.50;;;26.00;50.80;;;;;;5073427;28;20031;-71
2021/08/08 09:31:55;;;;;;;0.50;0.40;;;25.90;51.30;;;;;;5075170;28;20020;-71
2021/08/08 09:34:21;;;;;;;1.05;0.60;;;25.90;51.50;;;;;;5056790;28;20021;-71
2021/08/08 09:36:47;;;;;;;0.80;0.50;;;25.90;51.00;;;;;;5075218;28;20504;-71
2021/08/08 09:39:25;;;;;;;0.82;0.40;;;25.90;50.50;;;;;;5075205;28;20017;-71
2021/08/08 09:41:51;;;;;;;0.70;0.38;;;25.90;50.70;;;;;;5075047;28;20021;-71
2021/08/08 09:44:17;;;;;;;3.08;0.90;;;25.90;51.50;;;;;;5084704;28;20386;-71
2021/08/08 09:46:43;;;;;;;0.82;0.55;;;25.90;51.20;;;;;;5095365;28;20020;-71
2021/08/08 09:49:12;;;;;;;0.70;0.40;;;25.90;50.00;;;;;;5095241;28;20378;-70
2021/08/08 09:51:49;;;;;;;0.93;0.60;;;25.80;50.00;;;;;;5095246;28;20016;-71
2021/08/08 09:54:15;;;;;;;1.30;0.57;;;25.80;50.90;;;;;;5095095;28;20040;-71
2021/08/08 09:56:41;;;;;;;1.25;0.70;;;25.80;49.50;;;;;;5076973;28;20497;-71
2021/08/08 09:59:07;;;;;;;0.80;0.70;;;25.80;49.80;;;;;;5083499;28;20029;-70
2021/08/08 10:01:39;;;;;;;1.20;0.80;;;25.90;50.80;;;;;;5074533;28;20052;-70
2021/08/08 10:04:06;;;;;;;0.40;0.40;;;25.90;49.30;;;;;;5074857;28;20099;-70
2021/08/08 10:06:33;;;;;;;0.50;0.50;;;26.00;51.00;;;;;;5074918;28;20070;-70
2021/08/08 10:09:01;;;;;;;1.05;0.80;;;26.20;51.30;;;;;;5056761;28;20067;-70
2021/08/08 10:11:27;;;;;;;1.17;0.40;;;26.40;50.00;;;;;;5074650;28;20493;-70
2021/08/08 10:14:06;;;;;;;0.45;0.38;;;26.60;52.60;;;;;;5074623;28;20063;-71
2021/08/08 10:16:36;;;;;;;0.70;0.55;;;26.80;50.40;;;;;;5074472;28;20036;-70
2021/08/08 10:19:03;;;;;;;0.68;0.57;;;27.10;51.30;;;;;;5074603;28;20020;-70
2021/08/08 10:21:31;;;;;;;1.20;0.45;;;27.30;47.80;;;;;;5056485;28;20024;-70
2021/08/08 10:24:06;;;;;;;0.98;0.40;;;27.50;46.90;;;;;;5074459;28;20013;-69
2021/08/08 10:26:32;;;;;;;1.45;0.47;;;27.60;47.60;;;;;;5074486;28;20017;-68
2021/08/08 10:29:00;;;;;;;2.10;0.57;;;27.70;44.60;;;;;;5080647;28;20020;-69
2021/08/08 10:31:28;;;;;;;4.30;0.93;;;27.80;46.10;;;;;;5094476;28;20095;-68
2021/08/08 10:33:56;;;;;;;0.73;0.63;;;27.90;45.50;;;;;;5094253;28;20039;-68
2021/08/08 10:36:31;;;;;;;2.63;0.75;;;28.00;45.70;;;;;;5094381;28;20020;-69
2021/08/08 10:39:31;;;;;;;0.82;0.40;;;28.10;47.60;;;;;;5094432;28;20024;-69
2021/08/08 10:42:01;;;;;;;0.82;0.45;;;28.30;46.00;;;;;;5092810;28;20032;-67
2021/08/08 10:44:27;;;;;;;1.33;0.77;;;28.50;44.40;;;;;;5094346;28;20485;-68
2021/08/08 10:46:54;;;;;;;1.17;0.70;;;28.60;44.50;;;;;;5094287;28;20036;-69
2021/08/08 10:49:33;;;;;;;1.13;0.43;;;28.70;46.00;;;;;;5093987;28;20477;-68
2021/08/08 10:52:05;;;;;;;1.80;0.50;;;28.80;46.20;;;;;;5094389;28;20032;-68
2021/08/08 10:54:46;;;;;;;0.45;0.40;;;28.90;44.10;;;;;;5053768;28;20098;-68
2021/08/08 10:57:13;;;;;;;0.95;0.50;;;29.00;45.80;;;;;;5053647;28;20557;-68
2021/08/08 10:59:47;;;;;;;1.42;0.50;;;29.10;45.70;;;;;;5052822;28;20029;-68
2021/08/08 11:02:28;;;;;;;0.85;0.55;;;29.20;44.80;;;;;;5053489;28;20017;-68
2021/08/08 11:04:54;;;;;;;0.85;0.57;;;29.30;43.80;;;;;;5053556;28;20587;-68
2021/08/08 11:07:28;;;;;;;0.52;0.40;;;29.40;43.80;;;;;;5053541;28;20029;-68
2021/08/08 11:09:54;;;;;;;;;;;29.50;41.90;;;;;;5053977;28;20029;-68
2021/08/08 11:12:37;;;;;;;2.67;0.68;;;29.50;44.00;;;;;;5053385;28;19908;-68
2021/08/08 11:15:04;;;;;;;0.33;0.33;;;29.50;42.50;;;;;;5053397;28;20390;-68
2021/08/08 11:17:30;;;;;;;0.93;0.70;;;29.50;43.20;;;;;;5053221;28;20091;-68
2021/08/08 11:19:56;;;;;;;1.27;0.70;;;29.60;43.00;;;;;;5053264;28;20479;-68
2021/08/08 11:22:22;;;;;;;1.40;0.45;;;29.70;41.10;;;;;;5053151;28;20033;-68
2021/08/08 11:24:58;;;;;;;1.20;0.52;;;29.70;41.70;;;;;;5053176;28;20029;-68
2021/08/08 11:27:37;;;;;;;0.60;0.40;;;29.70;42.10;;;;;;5053100;28;20099;-68
2021/08/08 11:30:12;;;;;;;1.02;0.60;;;29.80;41.70;;;;;;5035899;28;20034;-68
2021/08/08 11:32:39;;;;;;;1.13;0.50;;;29.90;41.90;;;;;;5032995;28;20107;-68
2021/08/08 11:35:13;;;;;;;0.70;0.30;;;29.90;40.80;;;;;;5033052;28;20025;-68
2021/08/08 11:37:41;;;;;;;0.60;0.43;;;29.90;41.20;;;;;;5032893;28;20029;-68
2021/08/08 11:40:19;;;;;;;0.35;0.35;;;29.90;41.70;;;;;;5033003;28;20028;-68
2021/08/08 11:42:46;;;;;;;0.60;0.47;;;30.00;42.70;;;;;;5032993;28;20498;-68
2021/08/08 11:45:12;;;;;;;0.55;0.40;;;30.00;40.00;;;;;;5032855;28;20429;-68
2021/08/08 11:47:38;;;;;;;0.50;0.40;;;30.00;41.90;;;;;;5032795;28;20025;-69
2021/08/08 11:50:06;;;;;;;1.27;0.65;;;30.10;42.90;;;;;;5032804;28;20029;-69
2021/08/08 11:52:33;;;;;;;1.45;0.50;;;30.10;41.70;;;;;;5034867;28;20029;-69
2021/08/08 11:55:06;;;;;;;2.65;0.70;;;30.30;42.30;;;;;;5072441;28;20517;-69
2021/08/08 11:57:35;;;;;;;0.55;0.40;;;30.40;42.40;;;;;;5072549;28;20674;-70
2021/08/08 12:00:02;;;;;;;0.88;0.43;;;30.50;40.70;;;;;;5072428;28;20505;-68
2021/08/08 12:02:29;;;;;;;1.75;0.40;;;30.50;40.70;;;;;;5072303;28;20023;-68
2021/08/08 12:04:56;;;;;;;1.08;0.50;;;30.60;40.20;;;;;;5080953;28;20024;-68
2021/08/08 12:07:24;;;;;;;0.43;0.38;;;30.70;39.70;;;;;;5092533;28;20111;-68
2021/08/08 12:09:52;;;;;;;1.23;0.70;;;30.70;39.00;;;;;;5074275;28;20469;-68
2021/08/08 12:12:18;;;;;;;0.75;0.60;;;30.60;37.70;;;;;;5092487;28;20473;-68
2021/08/08 12:14:46;;;;;;;0.60;0.60;;;30.60;40.10;;;;;;5092583;28;20024;-69
2021/08/08 12:17:17;;;;;;;1.10;0.50;;;30.60;39.60;;;;;;5092345;28;20401;-69
2021/08/08 12:19:47;;;;;;;1.67;0.50;;;30.60;38.60;;;;;;5092577;28;20094;-69
2021/08/08 12:22:16;;;;;;;0.45;0.40;;;30.60;38.80;;;;;;5092735;28;20027;-69
2021/08/08 12:24:44;;;;;;;0.85;0.40;;;30.60;39.40;;;;;;5092415;28;20030;-69
2021/08/08 12:27:14;;;;;;;1.23;0.50;;;30.60;39.40;;;;;;5092296;28;20101;-69
2021/08/08 12:29:41;;;;;;;1.73;0.47;;;30.60;38.30;;;;;;5090581;28;20028;-69
2021/08/08 12:32:15;;;;;;;0.77;0.45;;;30.60;38.70;;;;;;5092376;28;20058;-69
2021/08/08 12:34:43;;;;;;;0.98;0.50;;;30.60;37.40;;;;;;5092211;28;20103;-69
2021/08/08 12:37:11;;;;;;;2.28;0.60;;;30.50;38.30;;;;;;5092183;28;20028;-70
2021/08/08 12:39:39;;;;;;;2.35;0.50;;;30.50;39.30;;;;;;5092050;28;20027;-69
2021/08/08 12:42:17;;;;;;;2.80;0.30;;;30.40;38.70;;;;;;5092135;28;20395;-69
2021/08/08 12:44:43;;;;;;;0.80;0.40;;;30.30;38.60;;;;;;5092167;28;20044;-69
2021/08/08 12:47:10;;;;;;;0.80;0.40;;;30.40;39.50;;;;;;5092056;28;20031;-69
2021/08/08 12:49:39;;;;;;;1.13;0.47;;;30.40;40.50;;;;;;5092062;28;20425;-69